Time;durP1;ratioP1;P1;durP2;ratioP2;P2;SDS_P1;SDS_P2;PMS_P1;PMS_P2;Temp;Humidity;BMP_temperature;BMP_pressure;BME280_temperature;BME280_humidity;BME280_pressure;Samples;Min_cycle;Max_cycle;Signal;HPM_P1;HPM_P2
2022/05/10 00:00:16;;;;;;;12.17;4.70;;;;;;;4.11;53.14;100745.72;1718961;82;21721;-59
2022/05/10 00:02:52;;;;;;;14.03;4.33;;;;;;;4.05;53.14;100735.42;1728548;82;20955;-60
2022/05/10 00:05:27;;;;;;;6.75;3.40;;;;;;;4.01;53.20;100736.31;1708763;83;21453;-60
2022/05/10 00:07:55;;;;;;;7.42;3.77;;;;;;;3.97;53.27;100734.59;1715097;82;21070;-61
2022/05/10 00:10:23;;;;;;;11.53;5.40;;;;;;;3.96;53.35;100730.30;1706756;83;21088;-61
2022/05/10 00:12:50;;;;;;;16.85;7.75;;;;;;;3.96;53.38;100727.71;1713497;83;21065;-61
2022/05/10 00:15:17;;;;;;;10.23;4.55;;;;;;;3.94;53.37;100722.98;1714032;83;21017;-60
2022/05/10 00:17:45;;;;;;;12.78;6.28;;;;;;;3.95;53.46;100723.39;1711001;83;22066;-60
2022/05/10 00:20:17;;;;;;;13.83;5.87;;;;;;;3.97;53.41;100721.67;1726527;81;21121;-60
2022/05/10 00:22:45;;;;;;;8.45;3.72;;;;;;;3.97;53.52;100719.94;1730303;82;21531;-60
2022/05/10 00:25:14;;;;;;;;;;;;;;;3.97;53.53;100719.94;1703055;84;21516;-61
2022/05/10 00:27:41;;;;;;;12.35;5.95;;;;;;;3.95;53.67;100716.52;1710262;83;20166;-61
2022/05/10 00:30:09;;;;;;;17.20;5.00;;;;;;;3.96;53.58;100713.06;1720570;82;22294;-60
2022/05/10 00:32:38;;;;;;;11.93;4.33;;;;;;;4.00;53.71;100708.73;1713151;83;21029;-60
2022/05/10 00:35:10;;;;;;;8.30;4.17;;;;;;;4.00;53.70;100712.17;1709064;83;21045;-60
2022/05/10 00:37:37;;;;;;;11.65;4.25;;;;;;;4.00;53.70;100713.91;1704273;83;20927;-61
2022/05/10 00:40:05;;;;;;;23.02;9.40;;;;;;;4.03;53.83;100707.42;1712443;83;21030;-60
2022/05/10 00:42:37;;;;;;;13.15;5.50;;;;;;;4.05;53.84;100709.58;1722996;82;21080;-61
2022/05/10 00:45:15;;;;;;;6.50;3.50;;;;;;;4.11;53.82;100704.38;1729756;82;21026;-61
2022/05/10 00:47:53;;;;;;;5.70;3.52;;;;;;;4.12;53.70;100702.67;1724082;82;21039;-61
2022/05/10 00:50:31;;;;;;;12.23;5.40;;;;;;;4.13;53.72;100698.77;1723978;81;20982;-60
2022/05/10 00:53:09;;;;;;;11.38;5.28;;;;;;;4.16;53.75;100693.58;1716851;82;20986;-60
2022/05/10 00:56:02;;;;;;;20.45;8.95;;;;;;;4.18;53.69;100691.00;1713156;83;21676;-59
2022/05/10 00:58:43;;;;;;;7.78;3.80;;;;;;;4.18;53.70;100689.27;1710296;83;21001;-60
2022/05/10 01:01:15;;;;;;;16.55;7.83;;;;;;;4.15;53.65;100680.24;1706713;83;21077;-60
2022/05/10 01:03:46;;;;;;;11.05;5.25;;;;;;;4.20;53.76;100670.73;1707770;83;21041;-61
2022/05/10 01:06:31;;;;;;;8.78;4.53;;;;;;;4.22;53.74;100668.13;1700449;82;21026;-60
2022/05/10 01:09:09;;;;;;;10.25;3.72;;;;;;;4.19;53.67;100666.41;1698803;83;21112;-60
2022/05/10 01:11:56;;;;;;;6.33;3.12;;;;;;;4.12;53.74;100659.58;1711105;82;21052;-60
2022/05/10 01:14:43;;;;;;;4.08;2.65;;;;;;;4.06;53.83;100657.01;1709351;83;21081;-60
2022/05/10 01:17:10;;;;;;;7.25;2.80;;;;;;;4.04;53.89;100648.43;1711658;83;21088;-60
2022/05/10 01:19:39;;;;;;;8.17;2.50;;;;;;;4.01;53.92;100650.59;1725012;82;21050;-59
2022/05/10 01:22:46;;;;;;;5.78;2.67;;;;;;;4.00;53.97;100649.30;1708004;82;21481;-60
2022/05/10 01:25:37;;;;;;;7.58;3.05;;;;;;;4.00;54.08;100649.30;1717395;82;20931;-60
2022/05/10 01:28:24;;;;;;;5.17;2.92;;;;;;;4.02;54.04;100660.49;1709308;83;21166;-60
2022/05/10 01:30:50;;;;;;;3.37;2.50;;;;;;;4.00;54.04;100651.88;1731268;82;20974;-60
2022/05/10 01:33:37;;;;;;;5.33;2.67;;;;;;;3.99;54.06;100650.17;1717906;82;21093;-60
2022/05/10 01:36:30;;;;;;;5.47;2.93;;;;;;;4.07;53.97;100647.55;1720900;82;21131;-60
2022/05/10 01:39:21;;;;;;;9.10;4.12;;;;;;;4.07;53.97;100647.55;1722227;82;21359;-59
2022/05/10 01:42:11;;;;;;;8.85;4.10;;;;;;;4.07;53.96;100645.83;1722209;82;20975;-61
2022/05/10 01:44:46;;;;;;;9.53;3.62;;;;;;;4.07;53.92;100643.23;1721411;82;21026;-61
2022/05/10 01:47:39;;;;;;;7.97;2.80;;;;;;;4.07;53.94;100631.61;1714511;83;20989;-60
2022/05/10 01:50:19;;;;;;;9.13;3.00;;;;;;;4.10;54.01;100627.71;1713294;83;21381;-60
2022/05/10 01:53:20;;;;;;;8.83;3.00;;;;;;;4.12;53.99;100631.16;1709343;82;20998;-59
2022/05/10 01:55:53;;;;;;;14.40;3.20;;;;;;;4.14;53.98;100628.10;1667818;85;21543;-61
2022/05/10 01:58:33;;;;;;;6.37;2.90;;;;;;;4.14;54.03;100625.95;1663732;86;21128;-60
2022/05/10 02:01:06;;;;;;;8.40;3.30;;;;;;;4.12;54.02;100631.16;1663876;85;21124;-60
2022/05/10 02:04:11;;;;;;;5.85;3.30;;;;;;;4.11;54.07;100626.83;1648842;85;21552;-61
2022/05/10 02:06:52;;;;;;;11.78;3.47;;;;;;;4.14;54.01;100620.34;1664437;85;21555;-61
2022/05/10 02:09:36;;;;;;;4.72;2.60;;;;;;;4.11;54.05;100616.49;1688514;83;21525;-61
2022/05/10 02:12:10;;;;;;;13.35;3.72;;;;;;;4.08;54.00;100611.34;1707037;83;21061;-61
2022/05/10 02:14:45;;;;;;;8.68;3.42;;;;;;;4.09;54.02;100613.08;1709286;83;21008;-61
2022/05/10 02:17:33;;;;;;;4.87;2.85;;;;;;;4.12;54.00;100602.72;1702849;83;21906;-61
2022/05/10 02:20:05;;;;;;;10.93;3.85;;;;;;;4.13;54.02;100599.25;1706826;83;21067;-60
2022/05/10 02:23:03;;;;;;;7.10;3.40;;;;;;;4.14;53.95;100600.96;1705609;82;21130;-61
2022/05/10 02:25:40;;;;;;;4.55;2.62;;;;;;;4.11;53.89;100598.40;1707127;83;21075;-59
2022/05/10 02:28:18;;;;;;;6.83;2.75;;;;;;;4.06;53.97;100587.23;1711380;83;21569;-60
2022/05/10 02:30:45;;;;;;;6.67;2.83;;;;;;;4.08;54.02;100597.57;1702832;83;21548;-59
2022/05/10 02:33:13;;;;;;;;;;;;;;;4.08;54.00;100595.84;1759895;80;21045;-59
2022/05/10 02:35:50;;;;;;;8.45;3.20;;;;;;;4.09;54.04;100592.81;1769905;80;20120;-60
2022/05/10 02:38:21;;;;;;;7.83;3.20;;;;;;;4.12;54.00;100591.09;1761623;80;20933;-61
2022/05/10 02:40:51;;;;;;;6.50;3.10;;;;;;;4.13;54.04;100592.80;1756708;79;21036;-60
2022/05/10 02:43:28;;;;;;;16.02;4.22;;;;;;;4.13;54.02;100593.23;1761982;80;21179;-60
2022/05/10 02:45:56;;;;;;;6.83;2.95;;;;;;;4.11;54.07;100594.52;1762469;80;21050;-59
2022/05/10 02:48:31;;;;;;;6.22;2.80;;;;;;;4.13;54.08;100591.50;1760765;79;20969;-60
2022/05/10 02:50:58;;;;;;;5.95;2.85;;;;;;;4.16;54.10;100583.72;1767915;80;21016;-60
2022/05/10 02:53:26;;;;;;;8.13;3.87;;;;;;;4.24;54.13;100587.11;1722799;82;21184;-61
2022/05/10 02:56:01;;;;;;;9.98;3.87;;;;;;;4.29;54.07;100584.95;1717408;82;21122;-60
2022/05/10 02:59:01;;;;;;;13.22;5.37;;;;;;;4.35;54.05;100581.01;1716631;81;21539;-60
2022/05/10 03:01:47;;;;;;;14.20;6.25;;;;;;;4.42;54.02;100583.95;1723355;82;21128;-60
2022/05/10 03:04:14;;;;;;;18.13;6.37;;;;;;;4.52;54.00;100579.13;1716882;81;21515;-60
2022/05/10 03:06:44;;;;;;;18.82;6.80;;;;;;;4.53;53.93;100567.91;1724474;82;21623;-61
2022/05/10 03:09:11;;;;;;;23.50;7.78;;;;;;;4.66;53.98;100572.10;1724306;82;21535;-61
2022/05/10 03:11:37;;;;;;;38.20;7.87;;;;;;;4.76;53.92;100572.00;1728841;81;21480;-60
2022/05/10 03:14:07;;;;;;;31.27;8.00;;;;;;;4.83;53.86;100577.11;1724305;82;21049;-61
2022/05/10 03:16:35;;;;;;;25.17;7.50;;;;;;;4.95;53.91;100572.23;1721057;82;21690;-61
2022/05/10 03:19:04;;;;;;;24.52;8.20;;;;;;;5.32;54.05;100560.16;1720196;81;21155;-60
2022/05/10 03:21:30;;;;;;;17.57;6.78;;;;;;;6.08;54.12;100564.78;1728030;82;21122;-61
2022/05/10 03:23:57;;;;;;;37.75;9.23;;;;;;;6.90;53.94;100566.39;1706239;83;21031;-60
2022/05/10 03:26:26;;;;;;;19.77;6.28;;;;;;;7.65;53.63;100564.03;1711194;83;20991;-61
2022/05/10 03:28:54;;;;;;;11.40;4.28;;;;;;;8.28;53.26;100560.81;1715249;83;21535;-61
2022/05/10 03:31:23;;;;;;;52.50;7.50;;;;;;;8.91;53.15;100555.80;1714340;83;21006;-61
2022/05/10 03:36:41;;;;;;;12.65;2.87;;;;;;;9.95;52.59;100552.73;1710383;83;21567;-61
2022/05/10 03:39:09;;;;;;;6.97;2.73;;;;;;;10.60;52.49;100551.52;1706919;83;21118;-61
2022/05/10 03:41:35;;;;;;;4.30;2.25;;;;;;;11.13;52.22;100547.92;1712203;83;21954;-61
2022/05/10 03:44:02;;;;;;;55.13;7.30;;;;;;;11.74;52.02;100543.00;1726086;82;21524;-62
2022/05/10 03:46:29;;;;;;;;;;;;;;;12.31;51.71;100532.43;1715697;82;21071;-61
2022/05/10 03:48:55;;;;;;;32.30;5.47;;;;;;;12.76;50.86;100536.63;1703002;83;20644;-62
2022/05/10 03:51:22;;;;;;;9.30;2.90;;;;;;;13.18;50.98;100531.72;1703353;83;20998;-62
2022/05/10 03:53:49;;;;;;;5.42;2.37;;;;;;;13.57;50.64;100532.63;1700499;83;21081;-62
2022/05/10 03:56:15;;;;;;;4.90;3.02;;;;;;;13.89;50.20;100533.71;1693454;83;22016;-62
2022/05/10 03:58:42;;;;;;;4.55;2.58;;;;;;;14.34;50.14;100529.78;1718433;82;21705;-62
2022/05/10 04:01:09;;;;;;;15.10;3.67;;;;;;;14.77;50.00;100528.94;1715627;82;21077;-62
2022/05/10 04:03:36;;;;;;;18.15;5.05;;;;;;;15.35;49.76;100529.80;1704006;83;22622;-62
2022/05/10 04:06:03;;;;;;;42.73;6.90;;;;;;;15.91;49.27;100526.31;1717194;82;20980;-62
2022/05/10 04:08:30;;;;;;;15.70;5.83;;;;;;;16.37;49.09;100528.08;1707784;83;21001;-60
2022/05/10 04:11:01;;;;;;;8.90;5.25;;;;;;;16.89;48.79;100521.90;1720512;82;21507;-60
2022/05/10 04:13:27;;;;;;;10.75;6.45;;;;;;;17.43;48.41;100526.48;1717652;82;21048;-62
2022/05/10 04:15:54;;;;;;;14.98;7.42;;;;;;;17.97;48.00;100523.91;1685182;84;21022;-62
2022/05/10 04:18:21;;;;;;;25.52;7.53;;;;;;;18.35;47.54;100523.19;1703737;83;21057;-62
2022/05/10 04:20:48;;;;;;;29.18;5.53;;;;;;;18.59;47.12;100519.83;1707565;83;21606;-62
2022/05/10 04:23:14;;;;;;;80.75;8.05;;;;;;;18.81;46.74;100518.76;1706419;83;22234;-62
2022/05/10 04:25:44;;;;;;;22.22;8.25;;;;;;;19.11;46.59;100516.27;1724675;82;21092;-62
2022/05/10 04:28:10;;;;;;;17.48;8.65;;;;;;;19.38;45.98;100509.02;1708328;82;21047;-62
2022/05/10 04:30:37;;;;;;;;;;;;;;;19.54;45.08;100499.95;1708477;83;20987;-62
2022/05/10 04:33:04;;;;;;;16.50;11.28;;;;;;;19.61;44.66;100499.89;1708399;83;20135;-62
2022/05/10 04:35:30;;;;;;;19.70;12.60;;;;;;;20.03;45.26;100502.55;1719118;82;22270;-62
2022/05/10 04:38:07;;;;;;;;;;;;;;;20.53;44.64;100499.73;1695823;83;21667;-62
2022/05/10 04:43:19;;;;;;;15.03;7.78;;;;;;;21.44;44.15;100498.80;1717402;82;21074;-63
2022/05/10 04:45:46;;;;;;;10.78;3.40;;;;;;;22.06;43.81;100498.12;1695898;83;21516;-63
2022/05/10 04:48:13;;;;;;;7.83;2.67;;;;;;;22.60;43.51;100498.11;1689723;83;21472;-63
2022/05/10 04:50:39;;;;;;;13.68;3.52;;;;;;;23.05;42.90;100492.47;1710906;82;21041;-63
2022/05/10 04:53:06;;;;;;;11.30;2.80;;;;;;;23.41;42.61;100489.25;1714091;82;21032;-63
2022/05/10 04:55:33;;;;;;;11.22;2.75;;;;;;;23.74;42.31;100485.88;1689803;83;21046;-63
2022/05/10 04:58:00;;;;;;;32.63;4.80;;;;;;;24.20;41.95;100482.16;1715893;82;21097;-63
2022/05/10 05:00:29;;;;;;;6.72;1.90;;;;;;;24.51;41.37;100478.36;1682386;84;21498;-63
2022/05/10 05:02:55;;;;;;;4.10;2.05;;;;;;;24.71;40.90;100475.64;1707050;83;21092;-63
2022/05/10 05:05:23;;;;;;;16.17;3.08;;;;;;;24.78;40.17;100474.89;1726088;81;21050;-63
2022/05/10 05:07:49;;;;;;;8.53;2.00;;;;;;;24.79;40.34;100465.08;1704293;83;21164;-64
2022/05/10 05:10:16;;;;;;;8.15;2.50;;;;;;;25.06;39.55;100472.25;1715804;81;21124;-62
2022/05/10 05:12:43;;;;;;;18.52;3.17;;;;;;;25.20;39.58;100470.95;1695700;83;21555;-64
2022/05/10 05:15:12;;;;;;;12.45;2.40;;;;;;;25.38;38.82;100464.33;1685685;84;22235;-65
2022/05/10 05:17:39;;;;;;;17.52;3.55;;;;;;;25.60;38.86;100462.55;1705525;83;20897;-65
2022/05/10 05:20:08;;;;;;;15.68;2.75;;;;;;;25.81;38.34;100470.77;1708172;83;20971;-65
2022/05/10 05:22:35;;;;;;;4.87;2.20;;;;;;;25.98;37.76;100469.95;1729265;82;21093;-65
2022/05/10 05:25:03;;;;;;;14.83;2.60;;;;;;;26.12;37.35;100466.72;1717539;82;21444;-64
2022/05/10 05:27:29;;;;;;;13.75;2.33;;;;;;;26.14;37.18;100468.42;1721781;82;21567;-65
2022/05/10 05:29:56;;;;;;;12.95;2.98;;;;;;;26.22;36.62;100464.47;1685053;84;21044;-64
2022/05/10 05:32:28;;;;;;;11.48;2.00;;;;;;;26.24;36.13;100466.47;1727394;82;20971;-64
2022/05/10 05:34:56;;;;;;;3.87;2.45;;;;;;;26.30;35.91;100461.85;1733111;82;21566;-64
2022/05/10 05:37:35;;;;;;;4.42;2.25;;;;;;;26.19;35.15;100467.46;1724203;82;22728;-65
2022/05/10 05:40:06;;;;;;;7.80;2.10;;;;;;;26.10;35.08;100459.36;1720093;82;21047;-64
2022/05/10 05:42:34;;;;;;;7.35;2.10;;;;;;;26.06;34.76;100456.64;1704892;83;20970;-65
2022/05/10 05:45:01;;;;;;;17.25;3.30;;;;;;;26.13;34.57;100458.19;1706982;83;21041;-65
2022/05/10 05:47:28;;;;;;;244.93;176.30;;;;;;;26.30;34.49;100464.53;1714387;82;20940;-64
2022/05/10 05:49:55;;;;;;;27.42;14.00;;;;;;;26.37;33.72;100446.83;1705325;83;21471;-64
2022/05/10 05:52:22;;;;;;;15.50;3.72;;;;;;;26.37;33.50;100452.69;1694564;82;21093;-64
2022/05/10 05:54:50;;;;;;;10.63;6.45;;;;;;;26.66;33.55;100465.78;1722853;81;21115;-65
2022/05/10 05:57:18;;;;;;;21.27;15.63;;;;;;;26.69;32.68;100458.76;1723325;81;21507;-64
2022/05/10 05:59:45;;;;;;;20.27;18.07;;;;;;;26.32;32.50;100455.82;1716830;81;20945;-65
2022/05/10 06:02:16;;;;;;;12.18;10.35;;;;;;;26.13;32.26;100460.86;1718563;81;21585;-64
2022/05/10 06:04:43;;;;;;;24.82;21.75;;;;;;;26.07;32.34;100466.84;1724891;81;20995;-64
2022/05/10 06:07:10;;;;;;;12.73;11.33;;;;;;;26.15;32.00;100464.23;1693814;83;21049;-64
2022/05/10 06:09:37;;;;;;;7.55;3.47;;;;;;;26.25;31.57;100453.45;1720233;81;20965;-64
2022/05/10 06:12:06;;;;;;;57.10;52.05;;;;;;;26.08;31.50;100457.33;1722722;81;21123;-66
2022/05/10 06:14:34;;;;;;;7.00;4.70;;;;;;;26.17;31.44;100458.73;1722366;81;21075;-64
2022/05/10 06:17:03;;;;;;;22.73;17.95;;;;;;;26.24;31.12;100458.44;1726788;81;21060;-64
2022/05/10 06:19:32;;;;;;;10.32;2.98;;;;;;;26.16;30.89;100443.66;1724081;81;20957;-64
2022/05/10 06:21:59;;;;;;;7.30;6.55;;;;;;;26.14;30.73;100451.02;1699438;81;21056;-64
2022/05/10 06:24:26;;;;;;;3.75;2.27;;;;;;;25.83;30.11;100446.08;1721991;81;21040;-63
2022/05/10 06:26:53;;;;;;;8.38;3.58;;;;;;;25.62;30.01;100431.13;1727091;81;22263;-64
2022/05/10 06:29:20;;;;;;;11.73;4.17;;;;;;;25.63;30.08;100446.20;1693179;83;20990;-65
2022/05/10 06:31:47;;;;;;;6.28;1.98;;;;;;;25.58;30.12;100443.14;1695193;83;22369;-64
2022/05/10 06:34:15;;;;;;;12.68;8.38;;;;;;;25.65;30.04;100437.54;1701044;83;21310;-64
2022/05/10 06:36:43;;;;;;;33.88;17.50;;;;;;;25.59;29.70;100436.79;1697413;83;21061;-64
2022/05/10 06:39:11;;;;;;;3.80;2.12;;;;;;;25.59;29.60;100438.13;1729677;81;21020;-64
2022/05/10 06:41:38;;;;;;;11.55;7.12;;;;;;;25.52;29.25;100443.75;1724307;81;20957;-64
2022/05/10 06:44:05;;;;;;;9.88;5.35;;;;;;;25.30;29.41;100438.84;1722748;81;20992;-64
2022/05/10 06:46:34;;;;;;;10.32;8.88;;;;;;;25.28;29.24;100430.13;1695025;83;21107;-64
2022/05/10 06:49:04;;;;;;;12.07;8.08;;;;;;;25.13;29.15;100440.45;1699042;83;21032;-63
2022/05/10 06:51:32;;;;;;;5.03;3.02;;;;;;;25.04;28.79;100436.84;1726512;82;21102;-63
2022/05/10 06:53:59;;;;;;;39.48;8.30;;;;;;;24.79;28.58;100433.86;1711705;83;21081;-64
2022/05/10 06:56:26;;;;;;;5.15;3.42;;;;;;;24.61;28.69;100416.91;1713920;82;21102;-64
2022/05/10 06:58:53;;;;;;;12.03;3.58;;;;;;;24.63;28.76;100416.28;1712198;83;20982;-64
2022/05/10 07:01:20;;;;;;;10.20;8.38;;;;;;;24.68;28.99;100418.03;1704064;83;21005;-64
2022/05/10 07:03:50;;;;;;;12.45;11.35;;;;;;;24.86;28.95;100422.58;1714190;83;21103;-64
2022/05/10 07:06:22;;;;;;;10.30;8.40;;;;;;;24.82;28.41;100415.88;1710470;83;21017;-64
2022/05/10 07:08:49;;;;;;;11.22;10.13;;;;;;;24.59;28.67;100413.58;1705927;83;21033;-63
2022/05/10 07:11:16;;;;;;;11.50;7.87;;;;;;;24.47;28.34;100420.89;1704067;83;21475;-64
2022/05/10 07:13:43;;;;;;;22.25;19.92;;;;;;;24.39;28.40;100423.41;1713489;83;21413;-64
2022/05/10 07:16:10;;;;;;;11.70;5.53;;;;;;;24.35;28.39;100412.19;1708484;83;22287;-64
2022/05/10 07:18:39;;;;;;;5.60;2.70;;;;;;;24.26;28.18;100413.06;1728490;81;21508;-63
2022/05/10 07:21:06;;;;;;;8.78;3.90;;;;;;;23.80;28.18;100405.82;1703557;83;21115;-64
2022/05/10 07:23:33;;;;;;;30.17;23.22;;;;;;;23.36;28.48;100406.20;1707872;83;21097;-64
2022/05/10 07:26:00;;;;;;;25.52;20.77;;;;;;;22.86;28.19;100398.20;1719393;81;21113;-63
2022/05/10 07:28:29;;;;;;;;;;;;;;;22.23;28.14;100401.47;1709538;83;21507;-63
2022/05/10 07:30:55;;;;;;;4.87;2.70;;;;;;;21.80;28.15;100397.10;1706807;83;20513;-63
2022/05/10 07:33:22;;;;;;;7.92;6.00;;;;;;;21.51;28.57;100395.05;1714912;81;21591;-63
2022/05/10 07:38:34;;;;;;;44.08;32.00;;;;;;;21.21;28.57;100393.05;1713926;83;21527;-62
2022/05/10 07:41:00;;;;;;;22.93;11.93;;;;;;;21.08;28.68;100383.05;1711300;83;21105;-62
2022/05/10 07:43:27;;;;;;;6.28;3.02;;;;;;;20.91;28.71;100376.45;1713830;83;21544;-62
2022/05/10 07:45:54;;;;;;;11.50;3.02;;;;;;;20.97;28.98;100380.77;1710934;83;22397;-62
2022/05/10 07:48:21;;;;;;;16.45;2.98;;;;;;;21.02;29.04;100377.76;1717115;82;21097;-62
2022/05/10 07:50:50;;;;;;;;;;;;;;;21.06;29.18;100383.20;1716045;82;21029;-62
2022/05/10 07:53:16;;;;;;;6.37;2.37;;;;;;;20.91;28.93;100377.78;1709600;83;21353;-62
2022/05/10 07:55:44;;;;;;;;;;;;;;;20.62;28.91;100379.62;1724608;82;21043;-63
2022/05/10 07:58:11;;;;;;;4.20;2.10;;;;;;;20.44;29.16;100374.38;1691391;83;20492;-62
2022/05/10 08:00:42;;;;;;;4.85;1.82;;;;;;;20.33;29.25;100369.45;1717195;82;21571;-62
2022/05/10 08:03:16;;;;;;;7.37;2.10;;;;;;;20.20;29.22;100368.70;1721047;82;21508;-62
2022/05/10 08:05:43;;;;;;;5.42;2.00;;;;;;;20.11;29.33;100361.48;1725205;82;21796;-62
2022/05/10 08:08:17;;;;;;;4.95;2.17;;;;;;;20.11;29.46;100374.73;1697952;83;21610;-62
2022/05/10 08:10:47;;;;;;;10.55;2.30;;;;;;;20.13;29.47;100372.78;1715211;82;21128;-63
2022/05/10 08:13:19;;;;;;;11.43;2.35;;;;;;;20.27;29.86;100369.91;1711466;82;21065;-62
2022/05/10 08:15:46;;;;;;;4.72;1.98;;;;;;;20.48;30.06;100366.56;1722976;82;21480;-62
2022/05/10 08:18:13;;;;;;;9.03;2.47;;;;;;;20.72;30.08;100358.00;1708511;83;21512;-61
2022/05/10 08:20:42;;;;;;;5.03;1.90;;;;;;;20.86;29.97;100362.21;1718873;82;21065;-62
2022/05/10 08:23:11;;;;;;;9.98;1.90;;;;;;;20.76;29.70;100351.50;1724121;82;21334;-61
2022/05/10 08:25:38;;;;;;;8.58;2.08;;;;;;;20.60;29.67;100349.70;1724866;82;21100;-62
2022/05/10 08:28:06;;;;;;;2.17;1.50;;;;;;;20.45;29.64;100349.08;1705947;83;21069;-62
2022/05/10 08:30:32;;;;;;;11.83;2.60;;;;;;;20.43;29.70;100345.70;1716631;82;22039;-62
2022/05/10 08:32:59;;;;;;;3.75;2.22;;;;;;;20.25;29.60;100337.84;1725324;82;21013;-62
2022/05/10 08:35:26;;;;;;;6.28;2.25;;;;;;;20.23;29.70;100336.65;1697674;83;21006;-62
2022/05/10 08:37:53;;;;;;;9.43;1.92;;;;;;;20.38;29.89;100330.62;1720250;82;28222;-62
2022/05/10 08:40:25;;;;;;;11.78;2.08;;;;;;;20.42;29.88;100323.29;1721248;80;21073;-62
2022/05/10 08:42:55;;;;;;;4.62;1.90;;;;;;;20.58;29.89;100322.44;1703499;82;21696;-63
2022/05/10 08:45:24;;;;;;;8.00;2.67;;;;;;;20.66;30.03;100321.84;1715631;82;21112;-63
2022/05/10 08:47:52;;;;;;;23.98;3.02;;;;;;;20.79;29.98;100312.77;1720584;82;20913;-63
2022/05/10 08:50:19;;;;;;;3.65;2.35;;;;;;;20.92;29.93;100310.44;1719987;82;21155;-63
2022/05/10 08:52:51;;;;;;;4.80;2.10;;;;;;;20.96;29.83;100310.56;1721196;81;20930;-63
2022/05/10 08:55:28;;;;;;;7.08;1.92;;;;;;;20.94;29.75;100307.19;1722516;81;21908;-63
2022/05/10 08:58:07;;;;;;;;;;;;;;;20.86;29.81;100297.67;1725030;81;21031;-63
2022/05/10 09:00:52;;;;;;;14.35;3.27;;;;;;;20.82;29.58;100294.92;1720527;81;20271;-63
2022/05/10 09:03:50;;;;;;;6.90;2.00;;;;;;;20.97;29.88;100301.63;1691093;83;21079;-63
2022/05/10 09:06:36;;;;;;;3.25;2.10;;;;;;;21.06;29.87;100295.59;1703335;83;21580;-63
2022/05/10 09:09:20;;;;;;;5.10;1.72;;;;;;;21.05;29.94;100293.88;1734707;81;21126;-64
2022/05/10 09:12:11;;;;;;;3.52;1.98;;;;;;;21.20;29.81;100295.29;1733708;81;21708;-63
2022/05/10 09:14:49;;;;;;;16.25;2.55;;;;;;;21.29;29.78;100288.37;1722249;81;21581;-62
2022/05/10 09:17:18;;;;;;;7.12;1.67;;;;;;;21.49;29.80;100293.86;1693295;83;21050;-62
2022/05/10 09:19:46;;;;;;;2.75;1.57;;;;;;;21.45;29.32;100291.47;1696088;83;21036;-61
2022/05/10 09:22:30;;;;;;;4.17;2.02;;;;;;;21.33;29.21;100273.02;1700487;83;21464;-60
2022/05/10 09:24:56;;;;;;;8.63;2.20;;;;;;;21.22;29.47;100276.55;1689920;83;21092;-63
2022/05/10 09:27:31;;;;;;;5.45;1.95;;;;;;;21.15;29.42;100269.59;1697420;83;20971;-63
2022/05/10 09:29:57;;;;;;;9.80;2.58;;;;;;;21.27;29.54;100265.56;1720807;81;21208;-63
2022/05/10 09:35:23;;;;;;;3.70;1.75;;;;;;;21.42;29.51;100260.31;1724951;81;21407;-62
2022/05/10 09:37:56;;;;;;;3.58;1.90;;;;;;;21.39;29.17;100245.96;1697256;83;21045;-63
2022/05/10 09:40:36;;;;;;;4.03;1.77;;;;;;;21.28;29.08;100251.30;1730581;81;21095;-63
2022/05/10 09:43:28;;;;;;;3.17;1.70;;;;;;;21.20;29.14;100248.81;1729134;81;21024;-62
2022/05/10 09:46:27;;;;;;;4.25;1.72;;;;;;;21.18;29.13;100249.42;1734616;81;21000;-63
2022/05/10 09:48:53;;;;;;;5.03;1.82;;;;;;;21.34;29.20;100252.11;1722534;81;21535;-63
2022/05/10 09:51:36;;;;;;;6.30;2.33;;;;;;;21.37;28.93;100251.42;1716792;81;21089;-63
2022/05/10 09:54:12;;;;;;;10.85;2.20;;;;;;;21.35;29.04;100243.19;1718278;82;20993;-64
2022/05/10 09:56:43;;;;;;;11.30;2.02;;;;;;;21.32;28.69;100245.61;1716629;81;20900;-62
2022/05/10 09:59:21;;;;;;;3.20;1.60;;;;;;;21.33;29.01;100227.86;1726198;81;21089;-63
2022/05/10 10:01:56;;;;;;;6.22;2.08;;;;;;;21.56;29.27;100225.94;1719175;82;21126;-62
2022/05/10 10:04:40;;;;;;;18.27;2.42;;;;;;;21.82;29.15;100216.58;1699649;82;21054;-62
2022/05/10 10:07:22;;;;;;;5.90;2.33;;;;;;;22.01;29.35;100213.14;1722412;82;20958;-63
2022/05/10 10:09:55;;;;;;;5.70;2.10;;;;;;;22.20;29.03;100212.41;1704843;83;21524;-63
2022/05/10 10:12:38;;;;;;;6.45;2.45;;;;;;;22.13;28.58;100209.42;1711532;83;21046;-63
2022/05/10 10:15:32;;;;;;;8.18;2.10;;;;;;;21.90;28.59;100202.60;1711732;83;21096;-63
2022/05/10 10:18:04;;;;;;;9.40;1.67;;;;;;;21.75;28.74;100198.62;1712706;83;21564;-64
2022/05/10 10:20:51;;;;;;;8.10;1.80;;;;;;;21.81;28.62;100192.78;1731793;81;21037;-64
2022/05/10 10:23:41;;;;;;;2.85;1.50;;;;;;;21.76;28.41;100192.33;1718503;82;21060;-64
2022/05/10 10:26:28;;;;;;;3.60;1.77;;;;;;;21.78;28.70;100193.05;1727102;82;20998;-65
2022/05/10 10:29:01;;;;;;;5.60;1.60;;;;;;;21.81;28.61;100197.59;1726600;81;21297;-64
2022/05/10 10:31:44;;;;;;;3.40;1.60;;;;;;;21.93;28.71;100186.41;1721528;81;20946;-65
2022/05/10 10:34:23;;;;;;;19.85;2.47;;;;;;;22.02;28.66;100185.59;1728116;81;21127;-64
2022/05/10 10:37:43;;;;;;;16.73;2.10;;;;;;;22.23;28.72;100179.37;1726846;82;20978;-64
2022/05/10 10:40:32;;;;;;;6.67;1.70;;;;;;;22.42;28.75;100178.09;1644213;86;21544;-63
2022/05/10 10:43:16;;;;;;;3.52;1.70;;;;;;;22.59;28.74;100166.42;1641312;86;21098;-62
2022/05/10 10:45:52;;;;;;;3.45;1.57;;;;;;;22.76;28.58;100165.72;1636004;87;21004;-62
2022/05/10 10:48:44;;;;;;;12.65;1.95;;;;;;;22.71;28.37;100154.65;1632802;87;21146;-63
2022/05/10 10:51:12;;;;;;;9.28;2.02;;;;;;;22.50;28.39;100158.29;1625428;87;21670;-61
2022/05/10 10:53:40;;;;;;;1.40;1.25;;;;;;;22.45;28.63;100152.53;1651929;84;21142;-65
2022/05/10 10:56:29;;;;;;;3.02;1.50;;;;;;;22.51;28.56;100149.31;1642824;86;21080;-62
2022/05/10 10:59:35;;;;;;;12.18;1.82;;;;;;;22.73;28.60;100143.38;1632934;87;21695;-63
2022/05/10 11:02:31;;;;;;;3.30;1.47;;;;;;;22.85;28.29;100142.24;1633803;87;21198;-63
2022/05/10 11:05:40;;;;;;;1.90;1.20;;;;;;;22.84;28.26;100132.59;1621372;87;21233;-60
2022/05/10 11:08:30;;;;;;;3.65;1.60;;;;;;;22.81;28.17;100128.87;1649659;86;21112;-61
2022/05/10 11:11:37;;;;;;;43.00;4.28;;;;;;;22.83;28.33;100116.77;1644360;86;21107;-62
2022/05/10 11:14:42;;;;;;;1.72;1.32;;;;;;;22.79;28.07;100118.85;1683225;83;20986;-63
2022/05/10 11:17:29;;;;;;;11.68;2.10;;;;;;;22.71;27.88;100110.73;1709470;83;21101;-61
2022/05/10 11:20:18;;;;;;;;;;;;;;;22.62;28.08;100111.58;1700732;83;21168;-65
2022/05/10 11:23:06;;;;;;;2.92;1.55;;;;;;;22.72;27.64;100103.11;1705568;83;20168;-61
2022/05/10 11:25:47;;;;;;;3.20;1.20;;;;;;;22.59;27.74;100098.56;1713694;81;20970;-61
2022/05/10 11:28:19;;;;;;;32.35;3.70;;;;;;;22.34;27.28;100084.83;1722015;82;20975;-62
2022/05/10 11:31:14;;;;;;;3.58;1.32;;;;;;;22.16;27.88;100099.77;1718724;82;21502;-62
2022/05/10 11:34:01;;;;;;;5.27;1.67;;;;;;;22.24;27.70;100090.65;1720234;82;21080;-62
2022/05/10 11:36:48;;;;;;;;;;;;;;;22.37;27.76;100096.52;1719007;82;21352;-62
2022/05/10 11:39:38;;;;;;;3.95;1.55;;;;;;;22.44;27.37;100086.17;1708332;83;20591;-63
2022/05/10 11:42:32;;;;;;;15.72;2.10;;;;;;;22.51;27.79;100082.80;1722297;82;20962;-64
2022/05/10 11:45:22;;;;;;;3.75;1.60;;;;;;;22.51;27.61;100076.14;1706817;81;20963;-62
2022/05/10 11:48:18;;;;;;;6.95;1.60;;;;;;;22.52;27.68;100073.84;1717589;82;21064;-62
2022/05/10 11:54:45;;;;;;;10.53;1.70;;;;;;;22.72;27.71;100068.52;1722711;82;21194;-62
2022/05/10 11:57:15;;;;;;;7.40;1.45;;;;;;;22.74;27.63;100055.88;1716675;82;21049;-61
2022/05/10 11:59:44;;;;;;;7.78;1.80;;;;;;;22.78;27.62;100051.96;1713201;82;21006;-61
2022/05/10 12:02:31;;;;;;;11.97;1.60;;;;;;;22.81;27.31;100051.67;1703922;83;21029;-61
2022/05/10 12:05:24;;;;;;;2.35;1.20;;;;;;;22.74;27.48;100040.77;1646661;86;21057;-61
2022/05/10 12:07:56;;;;;;;7.70;1.50;;;;;;;22.75;27.56;100030.95;1640250;86;21095;-61
2022/05/10 12:10:38;;;;;;;3.60;1.40;;;;;;;22.83;27.62;100023.09;1627636;87;21092;-61
2022/05/10 12:21:19;;;;;;;5.47;1.65;;;;;;;22.96;27.69;100028.13;1627635;86;21072;-61